Aviation Digital Data Service (ADDS)

Output produced by METARs form (1243 UTC 15 November 2018)
found at http://www.aviationweather.gov/metar/data/
 
VYMD 151230Z 36002KT 6000 BKN020 FEW025CB 25/22 Q1010
TAF VYMD 151100Z 1512/1612 36004KT 6000 SCT020 SCT120 
     TEMPO 1512/1518 32005KT 5000 HZ SCT020
       
VYYY 151230Z 35002KT 7000 NSC 30/25 Q1011
TAF VYYY 151100Z 1512/1612 32005KT 8000 SCT018 SCT100 
     TEMPO 1512/1518 7000 SCT015 FEW020CB 
     BECMG 1523/1601 02004KT 3000 BR 
     TEMPO 1601/1606 04006KT